Time;durP1;ratioP1;P1;durP2;ratioP2;P2;SDS_P1;SDS_P2;PMS_P1;PMS_P2;Temp;Humidity;BMP_temperature;BMP_pressure;BME280_temperature;BME280_humidity;BME280_pressure;Samples;Min_cycle;Max_cycle;Signal;HPM_P1;HPM_P2
2021/04/11 15:14:26;;;;;;;4.70;2.83;;;;;;;19.72;24.57;96081.00;5209975;27;20535;-63
2021/04/11 15:17:05;;;;;;;5.22;3.10;;;;;;;19.74;25.05;96076.13;5190610;27;20224;-63
2021/04/11 15:19:41;;;;;;;10.38;4.75;;;;;;;19.69;25.80;96076.38;5189734;27;20283;-63
2021/04/11 15:22:21;;;;;;;14.38;5.20;;;;;;;19.83;25.69;96083.91;5189944;27;20200;-62
2021/04/11 15:24:57;;;;;;;5.53;3.00;;;;;;;19.65;24.75;96078.16;5188848;27;20252;-63
2021/04/11 15:27:29;;;;;;;5.20;3.38;;;;;;;19.70;25.96;96082.44;5189416;27;20188;-64
2021/04/11 15:30:02;;;;;;;5.88;3.38;;;;;;;19.82;23.83;96077.09;5189501;27;20322;-63
2021/04/11 15:32:39;;;;;;;12.32;6.63;;;;;;;19.76;24.41;96076.59;5190142;27;20228;-64
2021/04/11 15:35:18;;;;;;;31.33;13.25;;;;;;;19.59;23.99;96084.00;5189024;27;20203;-64
2021/04/11 15:37:50;;;;;;;9.98;5.47;;;;;;;19.68;24.07;96074.06;5189695;27;20184;-64
2021/04/11 15:40:24;;;;;;;5.65;3.03;;;;;;;19.52;24.69;96084.59;5189489;27;20276;-63
2021/04/11 15:42:58;;;;;;;8.27;3.35;;;;;;;19.29;23.16;96080.91;5188519;27;20630;-63
2021/04/11 15:45:37;;;;;;;18.40;4.90;;;;;;;19.24;24.27;96087.16;5189344;27;20224;-63
2021/04/11 15:48:10;;;;;;;6.38;3.15;;;;;;;19.02;25.19;96087.66;5188853;27;20193;-63
2021/04/11 15:50:51;;;;;;;5.68;3.80;;;;;;;18.97;25.88;96089.75;5188702;27;20275;-63
2021/04/11 15:53:30;;;;;;;5.97;2.95;;;;;;;18.95;25.23;96089.31;5178955;27;20236;-63
2021/04/11 15:56:10;;;;;;;5.90;3.20;;;;;;;18.87;25.10;96086.50;5167806;27;20280;-64
2021/04/11 15:58:40;;;;;;;6.50;3.45;;;;;;;18.87;24.86;96086.50;5166698;27;20279;-64
2021/04/11 16:01:19;;;;;;;10.05;4.18;;;;;;;18.77;25.54;96089.56;5167268;27;20202;-63
2021/04/11 16:04:01;;;;;;;11.27;5.18;;;;;;;18.75;25.70;96093.63;5168149;27;20200;-63
2021/04/11 16:06:32;;;;;;;5.75;2.60;;;;;;;18.54;24.49;96093.72;5167724;27;20197;-64
2021/04/11 16:09:02;;;;;;;10.02;3.90;;;;;;;18.56;25.07;96091.53;5168600;27;20190;-64
2021/04/11 16:12:19;;;;;;;30.17;12.80;;;;;;;18.46;24.54;96092.72;5168502;27;20193;-63
2021/04/11 16:15:00;;;;;;;10.85;5.18;;;;;;;18.57;24.26;96087.81;5133365;27;20288;-64
2021/04/11 16:17:50;;;;;;;46.15;22.70;;;;;;;18.60;24.96;96091.66;5168649;27;20192;-64
2021/04/11 16:20:20;;;;;;;59.13;30.83;;;;;;;18.58;24.60;96094.59;5151024;27;20185;-64
2021/04/11 16:22:54;;;;;;;76.55;35.75;;;;;;;18.54;25.03;96099.00;5168304;27;20197;-63
2021/04/11 16:25:32;;;;;;;122.10;55.10;;;;;;;18.43;24.66;96092.63;5156262;27;20197;-61
2021/04/11 16:28:33;;;;;;;102.32;48.75;;;;;;;18.21;24.59;96098.28;5154579;27;20201;-64
2021/04/11 16:31:13;;;;;;;119.93;52.08;;;;;;;18.13;24.46;96107.03;5154265;27;20273;-63
2021/04/11 16:33:50;;;;;;;53.10;26.98;;;;;;;17.98;25.01;96111.81;5154135;27;20225;-64
2021/04/11 16:36:27;;;;;;;22.10;13.88;;;;;;;17.82;26.52;96110.91;5154138;27;20189;-62
2021/04/11 16:39:16;;;;;;;11.57;7.70;;;;;;;17.83;26.35;96116.94;5154315;27;20201;-63
2021/04/11 16:41:56;;;;;;;12.65;7.50;;;;;;;17.56;26.20;96118.22;5154015;27;20276;-63
2021/04/11 16:44:33;;;;;;;14.30;7.22;;;;;;;17.27;26.69;96118.28;5154021;27;20667;-63
2021/04/11 16:47:07;;;;;;;10.20;6.07;;;;;;;17.09;25.75;96121.00;5154356;27;20198;-63
2021/04/11 16:49:47;;;;;;;13.67;7.33;;;;;;;16.80;25.59;96123.66;5153939;27;20292;-63
2021/04/11 16:52:17;;;;;;;9.97;5.57;;;;;;;16.63;25.71;96123.75;5153666;27;20190;-63
2021/04/11 16:54:50;;;;;;;10.37;6.43;;;;;;;16.64;25.65;96125.28;5153596;27;20638;-63
2021/04/11 16:57:25;;;;;;;9.33;6.03;;;;;;;16.44;25.88;96131.22;5153827;27;20333;-62
2021/04/11 17:00:00;;;;;;;8.73;5.97;;;;;;;16.21;25.72;96134.06;5153712;27;20201;-64
2021/04/11 17:02:39;;;;;;;15.43;6.77;;;;;;;16.14;26.03;96136.38;5154076;27;20646;-63
2021/04/11 17:05:15;;;;;;;26.20;12.33;;;;;;;15.93;26.07;96136.28;5153542;27;20196;-61
2021/04/11 17:08:03;;;;;;;22.43;12.53;;;;;;;15.67;27.09;96150.47;5153832;27;20185;-62
2021/04/11 17:10:40;;;;;;;27.30;14.77;;;;;;;15.57;27.02;96151.56;5153674;27;20200;-63
2021/04/11 17:13:24;;;;;;;26.73;15.53;;;;;;;15.40;27.91;96152.28;5153234;27;20244;-63
2021/04/11 17:16:00;;;;;;;18.17;12.37;;;;;;;15.34;27.74;96164.00;5153574;27;20194;-63
2021/04/11 17:18:27;;;;;;;15.23;9.50;;;;;;;15.23;27.62;96167.22;5153303;27;20281;-65
2021/04/11 17:21:04;;;;;;;20.07;11.47;;;;;;;15.12;28.01;96171.97;5153281;27;20539;-65
2021/04/11 17:23:37;;;;;;;11.90;7.07;;;;;;;15.12;28.72;96181.66;5153414;27;20342;-65
2021/04/11 17:26:22;;;;;;;17.20;10.20;;;;;;;14.75;29.41;96183.72;5153249;27;20576;-65
2021/04/11 17:28:58;;;;;;;18.30;11.93;;;;;;;14.68;29.89;96191.25;5152514;27;20190;-65
2021/04/11 17:31:34;;;;;;;222.47;111.47;;;;;;;14.67;30.30;96187.06;5153109;27;20197;-64
2021/04/11 17:34:10;;;;;;;79.47;40.67;;;;;;;14.37;30.93;96183.38;5152840;27;20687;-64
2021/04/11 17:36:44;;;;;;;68.33;36.50;;;;;;;14.31;30.95;96184.56;5152235;27;20268;-63
2021/04/11 17:39:14;;;;;;;94.93;53.73;;;;;;;14.27;30.88;96194.06;5152943;27;20617;-64
2021/04/11 17:41:51;;;;;;;56.60;32.27;;;;;;;14.21;30.82;96201.25;5152956;27;20197;-64
2021/04/11 17:44:51;;;;;;;35.40;21.77;;;;;;;14.26;30.56;96200.38;5152813;27;20189;-64
2021/04/11 17:47:34;;;;;;;49.13;31.03;;;;;;;14.17;30.81;96202.16;5152729;27;20194;-66
2021/04/11 17:50:13;;;;;;;30.70;20.33;;;;;;;14.06;30.77;96213.91;5152825;27;20517;-63
2021/04/11 17:52:53;;;;;;;30.53;20.33;;;;;;;14.09;31.03;96215.94;5152543;27;20217;-64
2021/04/11 17:55:27;;;;;;;23.90;12.57;;;;;;;14.05;31.08;96222.81;5152498;27;20190;-63
2021/04/11 17:58:14;;;;;;;17.67;9.03;;;;;;;13.97;31.64;96223.53;5152548;27;20652;-63
2021/04/11 18:00:47;;;;;;;68.77;32.00;;;;;;;13.73;32.73;96226.44;5152545;27;20196;-63
2021/04/11 18:03:25;;;;;;;21.97;10.23;;;;;;;13.69;33.09;96230.69;5152433;27;20656;-64
2021/04/11 18:06:16;;;;;;;33.03;13.77;;;;;;;13.70;33.33;96230.38;5152797;27;20223;-66
2021/04/11 18:08:55;;;;;;;30.00;11.57;;;;;;;13.64;34.09;96243.88;5152643;27;20280;-64
2021/04/11 18:11:29;;;;;;;23.07;10.90;;;;;;;13.60;34.30;96243.66;5152195;27;20182;-64
2021/04/11 18:14:05;;;;;;;16.80;8.13;;;;;;;13.63;34.51;96248.31;5151932;27;20233;-63
2021/04/11 18:16:41;;;;;;;24.60;11.50;;;;;;;13.48;34.92;96253.84;5152472;27;20193;-63
2021/04/11 18:19:19;;;;;;;26.37;11.00;;;;;;;13.52;35.55;96257.41;5152383;27;20193;-63
2021/04/11 18:22:02;;;;;;;37.63;16.17;;;;;;;13.28;35.95;96251.66;5152181;27;20240;-63
2021/04/11 18:24:40;;;;;;;79.57;46.40;;;;;;;13.23;36.08;96255.13;5151322;27;20589;-61
2021/04/11 18:27:16;;;;;;;70.07;40.95;;;;;;;13.21;36.20;96266.91;5151061;27;20432;-63
2021/04/11 18:29:50;;;;;;;66.87;37.23;;;;;;;13.27;36.01;96266.53;5151996;27;20189;-62
2021/04/11 18:32:30;;;;;;;41.77;26.80;;;;;;;13.01;36.64;96270.66;5151856;27;20245;-63
2021/04/11 18:35:02;;;;;;;56.87;30.57;;;;;;;13.02;36.53;96271.44;5152264;27;20225;-63
2021/04/11 18:37:40;;;;;;;65.90;36.17;;;;;;;12.78;37.11;96272.38;5152027;27;20198;-63
2021/04/11 18:40:17;;;;;;;228.13;111.77;;;;;;;12.71;37.10;96284.22;5151809;27;20595;-61
2021/04/11 18:42:57;;;;;;;125.13;58.23;;;;;;;12.63;37.53;96280.47;5151925;27;20225;-61
2021/04/11 18:45:30;;;;;;;80.60;37.63;;;;;;;12.61;36.28;96282.56;5152059;27;20198;-62
2021/04/11 18:48:05;;;;;;;61.73;28.20;;;;;;;12.50;37.24;96284.56;5151318;27;20652;-62
2021/04/11 18:51:03;;;;;;;121.67;48.73;;;;;;;12.41;37.36;96288.09;5151608;27;20231;-62
2021/04/11 18:53:54;;;;;;;222.80;83.70;;;;;;;12.33;38.06;96289.53;5151397;27;20232;-63
2021/04/11 18:56:38;;;;;;;83.67;35.53;;;;;;;12.13;38.80;96286.44;5151800;27;20250;-62
2021/04/11 18:59:41;;;;;;;113.50;42.67;;;;;;;12.08;38.69;96287.31;5151686;27;20262;-61
2021/04/11 19:02:16;;;;;;;277.27;92.80;;;;;;;12.09;38.90;96283.66;5102633;27;20197;-62
2021/04/11 19:04:49;;;;;;;59.37;23.10;;;;;;;12.01;38.79;96285.03;5151870;27;20220;-62
2021/04/11 19:07:21;;;;;;;272.83;87.77;;;;;;;11.84;39.00;96282.19;5151339;27;20668;-62
2021/04/11 19:10:07;;;;;;;171.70;59.87;;;;;;;11.83;39.19;96287.66;5151368;27;20675;-61
2021/04/11 19:13:01;;;;;;;193.13;67.90;;;;;;;11.81;38.76;96282.72;5150901;27;20229;-62
2021/04/11 19:15:42;;;;;;;138.23;49.20;;;;;;;11.80;38.06;96289.00;5151551;27;20709;-63
2021/04/11 19:18:22;;;;;;;139.57;51.90;;;;;;;11.71;38.13;96288.03;5151437;27;20193;-63
2021/04/11 19:21:17;;;;;;;138.33;51.97;;;;;;;11.76;37.37;96284.63;5151202;27;20698;-63
2021/04/11 19:24:09;;;;;;;126.67;46.00;;;;;;;11.76;38.11;96290.59;5151517;27;20683;-64
2021/04/11 19:26:56;;;;;;;444.87;154.47;;;;;;;11.64;37.74;96287.63;5151662;27;20190;-62
2021/04/11 19:30:02;;;;;;;165.30;62.33;;;;;;;11.59;37.82;96282.47;5151156;27;20197;-62
2021/04/11 19:33:10;;;;;;;239.53;85.83;;;;;;;11.47;37.82;96287.28;5151126;27;20212;-61
2021/04/11 19:36:15;;;;;;;123.10;50.77;;;;;;;11.54;37.45;96285.91;5151324;27;20275;-61
2021/04/11 19:39:09;;;;;;;177.60;65.20;;;;;;;11.51;38.22;96288.28;5138938;27;20196;-63
2021/04/11 19:42:07;;;;;;;237.33;87.80;;;;;;;11.38;38.59;96284.53;5151424;27;20201;-63
2021/04/11 19:45:09;;;;;;;145.07;56.30;;;;;;;11.37;38.45;96282.22;5147940;27;20190;-63
2021/04/11 19:48:02;;;;;;;111.57;50.13;;;;;;;11.46;38.52;96281.31;5150866;27;20204;-62
2021/04/11 19:50:57;;;;;;;120.53;49.40;;;;;;;11.34;38.99;96280.19;5151000;27;20723;-63
2021/04/11 19:53:31;;;;;;;150.13;61.27;;;;;;;11.35;39.47;96282.50;5150933;27;20253;-63
2021/04/11 19:56:24;;;;;;;134.10;56.77;;;;;;;11.30;39.57;96276.59;5150900;27;20584;-63
2021/04/11 19:59:07;;;;;;;123.07;52.47;;;;;;;11.26;40.07;96280.78;5148193;27;20233;-64
2021/04/11 20:01:48;;;;;;;63.50;29.63;;;;;;;11.22;40.04;96283.94;5154888;27;20246;-65
2021/04/11 20:04:40;;;;;;;60.70;29.53;;;;;;;11.25;40.55;96289.66;5155099;27;20207;-63
2021/04/11 20:07:23;;;;;;;38.63;19.83;;;;;;;10.99;41.26;96292.53;5154968;27;20664;-63
2021/04/11 20:10:27;;;;;;;74.37;37.27;;;;;;;10.88;41.41;96290.28;5154765;27;20272;-63
2021/04/11 20:13:17;;;;;;;29.10;17.10;;;;;;;10.64;42.80;96301.41;5154811;27;20315;-61
2021/04/11 20:16:04;;;;;;;59.97;29.80;;;;;;;10.46;43.98;96301.31;5137238;27;20190;-62
2021/04/11 20:19:03;;;;;;;51.57;25.97;;;;;;;10.38;44.88;96302.66;5154606;27;20563;-63
2021/04/11 20:21:48;;;;;;;26.40;13.23;;;;;;;9.92;47.52;96305.53;5154180;27;20202;-63
2021/04/11 20:24:44;;;;;;;34.07;18.13;;;;;;;9.76;48.07;96301.47;5154818;27;20258;-62
2021/04/11 20:27:41;;;;;;;100.97;50.10;;;;;;;9.66;48.35;96311.13;5154347;27;20201;-63
2021/04/11 20:30:15;;;;;;;115.80;57.67;;;;;;;9.47;49.05;96306.53;5154389;27;20197;-62
2021/04/11 20:33:11;;;;;;;74.03;36.57;;;;;;;9.32;49.21;96306.59;5154165;27;20319;-62
2021/04/11 20:35:50;;;;;;;54.93;29.03;;;;;;;9.50;48.64;96308.59;5154309;27;20367;-62
2021/04/11 20:38:56;;;;;;;29.83;16.57;;;;;;;9.47;49.04;96303.16;5154271;27;20196;-62
2021/04/11 20:41:37;;;;;;;16.97;8.93;;;;;;;9.72;47.83;96307.44;5154145;27;20196;-63
2021/04/11 20:44:26;;;;;;;8.73;5.73;;;;;;;9.79;47.89;96307.94;5154062;27;20190;-65
2021/04/11 20:47:25;;;;;;;11.27;7.40;;;;;;;10.07;47.11;96296.09;5153825;27;20197;-64
2021/04/11 20:50:12;;;;;;;19.20;8.33;;;;;;;10.05;46.31;96301.56;5154477;27;20190;-63
2021/04/11 20:53:21;;;;;;;19.17;8.90;;;;;;;10.03;46.33;96306.25;5154287;27;20221;-63
2021/04/11 20:56:09;;;;;;;13.27;7.60;;;;;;;10.04;47.00;96305.22;5154139;27;20202;-62
2021/04/11 20:58:55;;;;;;;16.63;7.77;;;;;;;10.11;46.06;96310.13;5153751;27;20555;-63
2021/04/11 21:01:30;;;;;;;11.50;5.77;;;;;;;10.13;46.44;96306.19;5153618;27;20194;-60
2021/04/11 21:04:00;;;;;;;13.67;6.80;;;;;;;10.09;46.97;96305.19;5153618;27;20205;-63
2021/04/11 21:06:43;;;;;;;60.70;29.97;;;;;;;10.11;46.84;96318.66;5153616;27;20194;-63
2021/04/11 21:09:36;;;;;;;15.93;9.33;;;;;;;10.01;47.28;96315.38;5153671;27;20660;-64
2021/04/11 21:12:23;;;;;;;11.70;6.40;;;;;;;9.99;47.22;96315.63;5153020;27;20205;-62
2021/04/11 21:15:07;;;;;;;14.23;9.00;;;;;;;9.85;47.28;96314.69;5153501;27;20193;-62
2021/04/11 21:18:09;;;;;;;11.10;5.57;;;;;;;9.85;47.25;96318.06;5153479;27;20194;-62
2021/04/11 21:21:00;;;;;;;9.63;5.40;;;;;;;9.88;48.10;96319.31;5114652;27;20678;-63
2021/04/11 21:23:49;;;;;;;11.50;6.30;;;;;;;9.95;47.57;96325.00;5153540;27;20338;-61
2021/04/11 21:26:25;;;;;;;11.60;5.30;;;;;;;9.87;48.03;96322.94;5153265;27;20194;-63
2021/04/11 21:29:21;;;;;;;10.47;6.80;;;;;;;9.83;48.17;96322.72;5153277;27;20212;-62
2021/04/11 21:32:05;;;;;;;12.43;7.93;;;;;;;9.81;48.27;96330.00;5153623;27;20182;-63
2021/04/11 21:34:53;;;;;;;12.53;6.00;;;;;;;9.75;48.34;96323.28;5153370;27;20701;-61
2021/04/11 21:37:31;;;;;;;8.90;4.50;;;;;;;9.76;48.39;96332.59;5153057;27;20198;-63
2021/04/11 21:40:15;;;;;;;8.97;5.13;;;;;;;9.76;48.39;96329.25;5152880;27;20242;-62
2021/04/11 21:42:46;;;;;;;7.47;4.37;;;;;;;9.66;48.68;96331.91;5153402;27;20296;-63
2021/04/11 21:45:23;;;;;;;12.33;7.27;;;;;;;9.72;48.63;96331.59;5152911;27;20190;-62
2021/04/11 21:48:24;;;;;;;13.17;7.43;;;;;;;9.71;49.05;96339.66;5152782;27;20671;-63
2021/04/11 21:51:00;;;;;;;14.07;6.53;;;;;;;9.59;49.57;96337.38;5152685;27;20189;-62
2021/04/11 21:53:42;;;;;;;14.77;9.20;;;;;;;9.57;49.86;96339.44;5152449;27;20795;-62
2021/04/11 21:56:36;;;;;;;13.13;7.57;;;;;;;9.47;50.35;96345.44;5152922;27;20193;-60
2021/04/11 21:59:48;;;;;;;8.57;5.10;;;;;;;9.47;50.09;96350.63;5152383;27;20194;-62
2021/04/11 22:02:24;;;;;;;12.97;7.60;;;;;;;9.52;49.90;96353.22;5152784;27;20185;-62
2021/04/11 22:05:02;;;;;;;19.83;12.70;;;;;;;9.48;50.44;96348.81;5152454;27;20578;-62
2021/04/11 22:07:44;;;;;;;7.40;4.37;;;;;;;9.28;50.90;96347.06;5152546;27;20695;-62
2021/04/11 22:10:38;;;;;;;19.30;11.17;;;;;;;9.32;51.21;96355.88;5152446;27;20571;-62
2021/04/11 22:13:13;;;;;;;10.97;6.70;;;;;;;9.32;51.31;96352.50;5133352;27;20814;-62
2021/04/11 22:15:46;;;;;;;8.40;5.10;;;;;;;9.25;51.45;96357.97;5152582;27;20742;-62
2021/04/11 22:18:23;;;;;;;7.57;4.90;;;;;;;9.25;51.67;96363.16;5152175;27;20604;-63
2021/04/11 22:20:54;;;;;;;7.43;4.20;;;;;;;9.32;51.59;96358.44;5152297;27;20675;-62
2021/04/11 22:23:25;;;;;;;5.93;4.50;;;;;;;9.31;51.39;96362.13;5151484;27;20775;-63
2021/04/11 22:25:54;;;;;;;8.03;4.97;;;;;;;9.13;52.16;96354.09;5152027;27;20350;-62
2021/04/11 22:28:37;;;;;;;8.73;4.67;;;;;;;9.19;52.18;96366.78;5152174;27;20620;-62
2021/04/11 22:31:10;;;;;;;7.57;3.77;;;;;;;9.09;52.55;96366.81;5149829;27;20281;-62
2021/04/11 22:37:01;;;;;;;5.57;3.47;;;;;;;9.14;52.46;96360.84;5122042;27;20239;-63
2021/04/11 22:39:36;;;;;;;5.93;3.73;;;;;;;9.12;52.24;96363.69;5151838;27;20190;-62
2021/04/11 22:42:14;;;;;;;5.93;3.93;;;;;;;9.14;52.48;96361.63;5151961;27;20193;-63
2021/04/11 22:44:55;;;;;;;11.33;4.53;;;;;;;9.02;52.79;96366.28;5151644;27;20197;-63
2021/04/11 22:47:32;;;;;;;6.43;3.60;;;;;;;9.01;53.33;96352.56;5152097;27;20189;-63
2021/04/11 22:50:09;;;;;;;5.70;3.77;;;;;;;8.96;53.01;96355.16;5151692;27;20193;-62
2021/04/11 22:52:42;;;;;;;6.03;4.33;;;;;;;8.88;53.46;96362.69;5151618;27;20185;-63
2021/04/11 22:55:23;;;;;;;6.47;4.17;;;;;;;8.91;53.28;96362.19;5151845;27;20584;-64
2021/04/11 22:58:00;;;;;;;7.53;3.70;;;;;;;8.87;53.60;96361.13;5151755;27;20198;-63
2021/04/11 23:00:34;;;;;;;5.80;3.83;;;;;;;8.76;53.88;96354.41;5151671;27;20198;-63
2021/04/11 23:03:08;;;;;;;9.40;4.10;;;;;;;8.73;54.07;96360.09;5151766;27;20685;-63
2021/04/11 23:05:50;;;;;;;7.30;4.07;;;;;;;8.62;54.36;96357.50;5151728;27;20192;-63
2021/04/11 23:08:23;;;;;;;5.87;4.23;;;;;;;8.58;55.25;96359.06;5151840;27;20793;-62
2021/04/11 23:11:02;;;;;;;9.60;3.90;;;;;;;8.55;55.28;96359.59;5151467;27;20664;-62
2021/04/11 23:13:30;;;;;;;6.37;4.17;;;;;;;8.51;55.50;96352.59;5151289;27;20233;-62
2021/04/11 23:16:22;;;;;;;6.23;3.73;;;;;;;8.48;55.58;96353.09;5151353;27;20205;-61
2021/04/11 23:18:59;;;;;;;8.27;4.20;;;;;;;8.35;55.99;96354.38;5151639;27;20355;-62
2021/04/11 23:21:34;;;;;;;5.43;3.60;;;;;;;8.32;56.60;96352.28;5151394;27;20292;-62
2021/04/11 23:24:09;;;;;;;8.63;4.30;;;;;;;8.16;57.21;96351.50;5151242;27;20707;-62
2021/04/11 23:26:44;;;;;;;7.43;5.17;;;;;;;7.85;58.23;96343.91;5151372;27;20189;-61
2021/04/11 23:29:19;;;;;;;9.33;4.47;;;;;;;7.73;59.32;96349.28;5151260;27;20199;-63
2021/04/11 23:31:49;;;;;;;6.97;4.20;;;;;;;7.50;60.19;96353.09;5151726;27;20185;-62
2021/04/11 23:34:26;;;;;;;7.47;4.03;;;;;;;7.37;60.60;96353.53;5151968;27;20221;-64
2021/04/11 23:37:00;;;;;;;11.47;5.13;;;;;;;7.34;60.87;96351.44;5155418;27;20200;-61
2021/04/11 23:39:32;;;;;;;21.53;8.53;;;;;;;7.30;61.15;96350.41;5155622;27;20193;-61
2021/04/11 23:42:14;;;;;;;15.00;7.17;;;;;;;7.19;61.30;96357.31;5155372;27;20215;-63
2021/04/11 23:44:47;;;;;;;16.87;7.13;;;;;;;7.27;61.86;96345.75;5155398;27;20194;-63
2021/04/11 23:47:25;;;;;;;11.00;6.00;;;;;;;7.23;61.41;96342.84;5155244;27;20182;-62
2021/04/11 23:49:58;;;;;;;24.03;8.60;;;;;;;7.26;61.15;96341.59;5155375;27;20186;-62
2021/04/11 23:52:41;;;;;;;24.23;10.10;;;;;;;7.27;61.12;96336.16;5155071;27;20186;-63
2021/04/11 23:55:12;;;;;;;18.50;7.83;;;;;;;7.35;60.82;96330.53;5155180;27;20190;-62
2021/04/11 23:57:51;;;;;;;8.77;5.17;;;;;;;7.48;60.23;96333.66;5154976;27;20194;-63
